createdAt,value
2019-05-20T00:00:03.597Z,14.20
2019-05-20T00:02:41.153Z,14.20
2019-05-20T00:05:18.868Z,14.30
2019-05-20T00:07:56.306Z,14.30
2019-05-20T00:10:33.825Z,14.20
2019-05-20T00:13:11.319Z,14.20
2019-05-20T00:15:48.853Z,14.20
2019-05-20T00:18:26.381Z,14.10
2019-05-20T00:21:03.890Z,14.10
2019-05-20T00:23:41.403Z,14.10
2019-05-20T00:26:18.895Z,14.10
2019-05-20T00:28:56.400Z,14.10
2019-05-20T00:31:33.926Z,14.20
2019-05-20T00:34:11.482Z,14.30
2019-05-20T00:36:49.001Z,14.40
2019-05-20T00:39:26.525Z,14.40
2019-05-20T00:42:04.042Z,14.50
2019-05-20T00:44:41.910Z,14.50
2019-05-20T00:47:19.415Z,14.50
2019-05-20T00:49:56.951Z,14.60
2019-05-20T00:52:34.466Z,14.60
2019-05-20T00:55:17.523Z,14.70
2019-05-20T00:57:55.055Z,14.70
2019-05-20T01:00:32.565Z,14.70
2019-05-20T01:03:10.315Z,14.60
2019-05-20T01:05:47.882Z,14.60
2019-05-20T01:08:25.400Z,14.50
2019-05-20T01:11:02.947Z,14.50
2019-05-20T01:13:40.479Z,14.40
2019-05-20T01:16:18.031Z,14.30
2019-05-20T01:18:55.513Z,14.30
2019-05-20T01:21:33.085Z,14.20
2019-05-20T01:24:10.651Z,14.10
2019-05-20T01:26:48.158Z,14.10
2019-05-20T01:29:25.683Z,14.10
2019-05-20T01:32:03.240Z,14.10
2019-05-20T01:34:40.777Z,14.00
2019-05-20T01:37:18.293Z,14.00
2019-05-20T01:39:55.899Z,14.00
2019-05-20T01:42:33.423Z,14.00
2019-05-20T01:45:10.964Z,14.00
2019-05-20T01:47:48.472Z,14.00
2019-05-20T01:50:26.027Z,14.10
2019-05-20T01:53:03.524Z,14.10
2019-05-20T01:55:41.089Z,14.20
2019-05-20T01:58:18.654Z,14.30
2019-05-20T02:00:56.190Z,14.40
2019-05-20T02:03:33.742Z,14.50
2019-05-20T02:06:11.279Z,14.60
2019-05-20T02:08:48.766Z,14.60
2019-05-20T02:11:26.307Z,14.70
2019-05-20T02:14:06.356Z,14.70
2019-05-20T02:16:43.877Z,14.80
2019-05-20T02:19:21.399Z,14.80
2019-05-20T02:21:58.983Z,14.80
2019-05-20T02:24:36.498Z,14.80
2019-05-20T02:27:14.124Z,14.80
2019-05-20T02:29:51.655Z,14.80
2019-05-20T02:32:29.177Z,14.70
2019-05-20T02:35:06.731Z,14.70
2019-05-20T02:37:44.258Z,14.80
2019-05-20T02:40:21.749Z,14.80
2019-05-20T02:42:59.273Z,14.80
2019-05-20T02:45:36.806Z,14.80
2019-05-20T02:48:14.365Z,14.70
2019-05-20T02:50:51.919Z,14.70
2019-05-20T02:53:29.417Z,14.70
2019-05-20T02:56:06.988Z,14.60
2019-05-20T02:58:44.513Z,14.60
2019-05-20T03:01:22.272Z,14.60
2019-05-20T03:04:10.691Z,14.60
2019-05-20T03:06:37.068Z,14.50
2019-05-20T03:09:14.580Z,14.50
2019-05-20T03:11:52.093Z,14.40
2019-05-20T03:14:29.644Z,14.30
2019-05-20T03:17:07.179Z,14.10
2019-05-20T03:19:44.689Z,14.00
2019-05-20T03:22:22.217Z,13.90
2019-05-20T03:24:59.712Z,13.80
2019-05-20T03:27:37.230Z,13.70
2019-05-20T03:30:14.816Z,13.70
2019-05-20T03:32:52.331Z,13.70
2019-05-20T03:35:29.875Z,13.70
2019-05-20T03:38:07.382Z,13.70
2019-05-20T03:40:44.900Z,13.70
2019-05-20T03:43:22.442Z,13.80
2019-05-20T03:45:59.949Z,13.90
2019-05-20T03:48:37.497Z,14.00
2019-05-20T03:51:15.272Z,14.00
2019-05-20T03:53:52.855Z,14.10
2019-05-20T03:56:30.390Z,14.20
2019-05-20T03:59:07.938Z,14.30
2019-05-20T04:01:45.487Z,14.30
2019-05-20T04:04:25.140Z,14.40
2019-05-20T04:07:00.609Z,14.40
2019-05-20T04:09:38.184Z,14.50
2019-05-20T04:12:15.731Z,14.50
2019-05-20T04:14:53.238Z,14.60
2019-05-20T04:17:30.746Z,14.60
2019-05-20T04:20:08.586Z,14.70
2019-05-20T04:22:46.108Z,14.80
2019-05-20T04:25:23.621Z,14.90
2019-05-20T04:28:01.161Z,15.00
2019-05-20T04:30:38.650Z,15.10
2019-05-20T04:33:16.197Z,15.10
2019-05-20T04:35:53.757Z,15.20
2019-05-20T04:38:31.313Z,15.20
2019-05-20T04:41:08.801Z,15.40
2019-05-20T04:43:46.343Z,15.60
2019-05-20T04:46:23.940Z,15.70
2019-05-20T04:49:01.548Z,15.80
2019-05-20T04:51:41.797Z,16.00
2019-05-20T04:54:19.328Z,16.20
2019-05-20T04:56:56.831Z,16.30
2019-05-20T04:59:34.341Z,16.40
2019-05-20T05:02:11.911Z,16.50
2019-05-20T05:04:49.449Z,16.50
2019-05-20T05:07:26.969Z,16.60
2019-05-20T05:10:04.456Z,16.80
2019-05-20T05:12:41.998Z,16.90
2019-05-20T05:15:19.502Z,17.10
2019-05-20T05:17:57.074Z,17.30
2019-05-20T05:20:34.666Z,17.40
2019-05-20T05:23:12.183Z,17.50
2019-05-20T05:25:49.674Z,17.60
2019-05-20T05:28:27.258Z,17.70
2019-05-20T05:31:04.803Z,17.80
2019-05-20T05:33:42.339Z,17.80
2019-05-20T05:36:19.842Z,17.90
2019-05-20T05:38:57.360Z,18.00
2019-05-20T05:41:34.885Z,18.20
2019-05-20T05:44:12.416Z,18.30
2019-05-20T05:46:49.923Z,18.40
2019-05-20T05:49:27.470Z,18.60
2019-05-20T05:52:05.062Z,18.70
2019-05-20T05:54:42.610Z,18.90
2019-05-20T05:57:20.127Z,19.00
2019-05-20T05:59:57.676Z,19.20
2019-05-20T06:02:35.206Z,19.40
2019-05-20T06:05:12.710Z,19.50
2019-05-20T06:07:50.206Z,19.60
2019-05-20T06:10:27.788Z,19.70
2019-05-20T06:13:05.394Z,19.80
2019-05-20T06:15:42.896Z,19.80
2019-05-20T06:18:20.422Z,19.80
2019-05-20T06:20:57.986Z,19.80
2019-05-20T06:23:35.509Z,19.80
2019-05-20T06:26:13.031Z,19.60
2019-05-20T06:28:50.573Z,19.40
2019-05-20T06:31:28.097Z,19.30
2019-05-20T06:34:05.688Z,19.20
2019-05-20T06:36:43.862Z,19.10
2019-05-20T06:39:21.417Z,19.00
2019-05-20T06:41:58.972Z,18.90
2019-05-20T06:44:51.822Z,18.70
2019-05-20T06:47:13.993Z,18.70
2019-05-20T06:49:51.530Z,18.60
2019-05-20T06:52:35.758Z,18.50
2019-05-20T06:55:07.352Z,18.50
2019-05-20T06:57:44.895Z,18.50
2019-05-20T07:00:34.767Z,18.60
2019-05-20T07:03:12.256Z,18.70
2019-05-20T07:05:49.775Z,18.80
2019-05-20T07:08:27.319Z,18.90
2019-05-20T07:11:04.875Z,19.10
2019-05-20T07:13:42.439Z,19.20
2019-05-20T07:16:19.946Z,19.40
2019-05-20T07:18:57.474Z,19.60
2019-05-20T07:21:35.017Z,19.70
2019-05-20T07:24:12.539Z,19.80
2019-05-20T07:26:50.047Z,20.00
2019-05-20T07:29:27.640Z,20.10
2019-05-20T07:32:05.155Z,20.30
2019-05-20T07:34:42.691Z,20.60
2019-05-20T07:37:20.192Z,20.80
2019-05-20T07:39:57.750Z,20.90
2019-05-20T07:42:35.253Z,21.10
2019-05-20T07:45:12.780Z,21.10
2019-05-20T07:47:50.313Z,21.10
2019-05-20T07:50:27.868Z,21.00
2019-05-20T07:53:05.368Z,21.00
2019-05-20T07:55:50.743Z,21.20
2019-05-20T07:58:28.400Z,21.40
2019-05-20T08:01:06.087Z,21.90
2019-05-20T08:03:43.588Z,22.20
2019-05-20T08:06:21.154Z,22.30
2019-05-20T08:08:58.658Z,22.40
2019-05-20T08:11:36.171Z,22.50
2019-05-20T08:14:13.666Z,22.50
2019-05-20T08:16:51.182Z,22.50
2019-05-20T08:19:28.762Z,22.60
2019-05-20T08:22:06.207Z,22.60
2019-05-20T08:24:43.740Z,22.60
2019-05-20T08:27:21.232Z,22.60
2019-05-20T08:29:58.797Z,22.60
2019-05-20T08:32:36.310Z,22.50
2019-05-20T08:35:13.834Z,22.50
2019-05-20T08:37:51.359Z,22.50
2019-05-20T08:40:28.894Z,22.40
2019-05-20T08:43:06.387Z,22.40
2019-05-20T08:45:43.911Z,22.40
2019-05-20T08:48:21.428Z,22.50
2019-05-20T08:50:58.959Z,22.60
2019-05-20T08:53:36.465Z,22.70
2019-05-20T08:56:13.994Z,22.70
2019-05-20T08:58:51.539Z,22.80
2019-05-20T09:01:29.070Z,22.90
2019-05-20T09:04:06.610Z,23.00
2019-05-20T09:06:44.161Z,23.00
2019-05-20T09:09:21.716Z,23.20
2019-05-20T09:11:59.213Z,23.30
2019-05-20T09:14:40.248Z,23.40
2019-05-20T09:17:14.237Z,23.40
2019-05-20T09:19:51.737Z,23.50
2019-05-20T09:22:29.298Z,23.50
2019-05-20T09:25:07.077Z,23.50
2019-05-20T09:27:44.405Z,23.70
2019-05-20T09:30:22.034Z,23.90
2019-05-20T09:32:59.530Z,24.20
2019-05-20T09:35:37.053Z,24.40
2019-05-20T09:38:20.274Z,24.40
2019-05-20T09:40:52.071Z,24.50
2019-05-20T09:43:29.588Z,24.80
2019-05-20T09:46:08.338Z,25.00
2019-05-20T09:48:44.661Z,25.20
2019-05-20T09:51:22.278Z,25.30
2019-05-20T09:53:59.835Z,25.60
2019-05-20T09:56:37.369Z,25.90
2019-05-20T09:59:16.428Z,26.20
2019-05-20T10:01:52.438Z,26.40
2019-05-20T10:04:29.979Z,26.70
2019-05-20T10:07:07.509Z,27.00
2019-05-20T10:09:45.011Z,27.40
2019-05-20T10:12:22.545Z,27.80
2019-05-20T10:15:00.054Z,28.10
2019-05-20T10:17:37.583Z,28.10
2019-05-20T10:20:15.149Z,27.90
2019-05-20T10:22:52.661Z,28.10
2019-05-20T10:25:30.169Z,28.30
2019-05-20T10:28:09.797Z,28.50
2019-05-20T10:30:47.300Z,28.90
2019-05-20T10:33:24.827Z,29.00
2019-05-20T10:36:02.333Z,29.10
2019-05-20T10:38:56.862Z,29.20
2019-05-20T10:41:17.437Z,29.00
2019-05-20T10:43:54.979Z,28.90
2019-05-20T10:46:32.515Z,28.80
2019-05-20T10:49:10.027Z,28.70
2019-05-20T10:51:47.573Z,28.60
2019-05-20T10:54:25.107Z,28.50
2019-05-20T10:57:02.602Z,28.60
2019-05-20T10:59:40.137Z,28.40
2019-05-20T11:02:17.658Z,28.40
2019-05-20T11:04:55.198Z,28.30
2019-05-20T11:07:32.742Z,28.30
2019-05-20T11:10:10.311Z,28.40
2019-05-20T11:12:47.853Z,28.40
2019-05-20T11:15:25.349Z,28.40
2019-05-20T11:18:02.894Z,28.50
2019-05-20T11:20:40.404Z,28.80
2019-05-20T11:23:17.951Z,29.10
2019-05-20T11:25:55.448Z,29.40
2019-05-20T11:28:32.985Z,29.50
2019-05-20T11:31:10.483Z,29.40
2019-05-20T11:33:48.022Z,29.30
2019-05-20T11:36:25.574Z,29.30
2019-05-20T11:39:06.983Z,29.10
2019-05-20T11:41:52.978Z,28.70
2019-05-20T11:44:18.574Z,28.20
2019-05-20T11:46:56.087Z,27.80
2019-05-20T11:49:33.651Z,27.30
2019-05-20T11:52:11.174Z,26.90
2019-05-20T11:54:48.717Z,26.50
2019-05-20T11:57:26.308Z,26.20
2019-05-20T12:00:03.799Z,26.00
2019-05-20T12:02:41.325Z,25.90
2019-05-20T12:05:18.855Z,25.60
2019-05-20T12:07:56.399Z,25.50
2019-05-20T12:10:33.893Z,25.40
2019-05-20T12:13:11.444Z,25.00
2019-05-20T12:15:48.959Z,24.70
2019-05-20T12:18:26.522Z,24.80
2019-05-20T12:21:04.062Z,25.10
2019-05-20T12:23:41.618Z,25.40
2019-05-20T12:26:22.452Z,25.80
2019-05-20T12:28:56.643Z,26.10
2019-05-20T12:31:34.174Z,26.40
2019-05-20T12:34:11.707Z,26.50
2019-05-20T12:36:49.260Z,26.50
2019-05-20T12:39:26.866Z,26.40
2019-05-20T12:42:04.372Z,26.30
2019-05-20T12:44:41.889Z,26.30
2019-05-20T12:47:19.411Z,26.30
2019-05-20T12:49:56.934Z,26.30
2019-05-20T12:52:34.543Z,26.30
2019-05-20T12:55:12.055Z,26.30
2019-05-20T12:57:49.544Z,26.10
2019-05-20T13:00:27.066Z,25.60
2019-05-20T13:03:04.583Z,24.80
2019-05-20T13:05:42.108Z,24.00
2019-05-20T13:08:19.609Z,23.20
2019-05-20T13:10:57.145Z,22.70
2019-05-20T13:13:34.664Z,22.50
2019-05-20T13:16:12.174Z,22.20
2019-05-20T13:18:56.084Z,22.10
2019-05-20T13:21:27.252Z,21.90
2019-05-20T13:24:04.762Z,21.60
2019-05-20T13:26:42.297Z,21.40
2019-05-20T13:29:19.813Z,21.20
2019-05-20T13:31:57.314Z,21.10
2019-05-20T13:34:34.824Z,21.10
2019-05-20T13:37:12.330Z,21.40
2019-05-20T13:39:49.854Z,22.30
2019-05-20T13:42:27.354Z,24.70
2019-05-20T13:45:04.889Z,27.70
2019-05-20T13:47:42.407Z,31.00
2019-05-20T13:50:19.920Z,34.30
2019-05-20T13:52:57.474Z,36.60
2019-05-20T13:55:35.022Z,37.00
2019-05-20T13:58:12.536Z,37.20
2019-05-20T14:00:50.060Z,36.20
2019-05-20T14:03:27.584Z,34.90
2019-05-20T14:06:05.144Z,33.70
2019-05-20T14:08:42.662Z,32.50
2019-05-20T14:11:33.754Z,31.50
2019-05-20T14:13:57.748Z,30.80
2019-05-20T14:16:35.262Z,30.20
2019-05-20T14:19:12.773Z,29.70
2019-05-20T14:21:50.301Z,29.30
2019-05-20T14:24:27.822Z,28.90
2019-05-20T14:27:05.361Z,28.50
2019-05-20T14:29:42.908Z,28.00
2019-05-20T14:32:20.435Z,27.60
2019-05-20T14:34:58.054Z,27.30
2019-05-20T14:37:35.479Z,27.40
2019-05-20T14:40:13.026Z,27.60
2019-05-20T14:42:50.545Z,28.00
2019-05-20T14:45:28.089Z,28.60
2019-05-20T14:48:05.825Z,29.30
2019-05-20T14:50:43.293Z,30.40
2019-05-20T14:53:20.833Z,31.40
2019-05-20T14:55:59.152Z,32.00
2019-05-20T14:58:36.669Z,32.40
2019-05-20T15:01:14.233Z,32.50
2019-05-20T15:03:51.726Z,32.20
2019-05-20T15:06:29.253Z,32.00
2019-05-20T15:09:07.424Z,31.80
2019-05-20T15:11:44.934Z,31.70
2019-05-20T15:14:22.495Z,31.80
2019-05-20T15:17:00.054Z,31.60
2019-05-20T15:19:37.537Z,31.20
2019-05-20T15:22:15.105Z,30.60
2019-05-20T15:24:53.062Z,30.10
2019-05-20T15:27:30.605Z,29.60
2019-05-20T15:30:08.725Z,29.10
2019-05-20T15:32:46.385Z,28.60
2019-05-20T15:35:23.984Z,28.10
2019-05-20T15:38:01.527Z,27.70
2019-05-20T15:40:39.076Z,27.30
2019-05-20T15:43:17.665Z,26.90
2019-05-20T15:45:55.174Z,26.60
2019-05-20T15:48:32.700Z,26.20
2019-05-20T15:51:10.255Z,26.00
2019-05-20T15:53:47.778Z,25.70
2019-05-20T15:56:25.314Z,25.40
2019-05-20T15:59:03.024Z,25.20
2019-05-20T16:01:40.626Z,25.00
2019-05-20T16:04:18.142Z,24.80
2019-05-20T16:06:59.751Z,24.60
2019-05-20T16:09:34.317Z,24.40
2019-05-20T16:12:11.906Z,24.10
2019-05-20T16:14:51.662Z,23.90
2019-05-20T16:17:29.358Z,23.60
2019-05-20T16:20:07.272Z,23.40
2019-05-20T16:22:44.250Z,23.30
2019-05-20T16:25:21.760Z,23.20
2019-05-20T16:27:59.274Z,23.00
2019-05-20T16:30:36.769Z,23.00
2019-05-20T16:33:14.345Z,22.90
2019-05-20T16:36:03.610Z,22.80
2019-05-20T16:38:42.262Z,22.80
2019-05-20T16:41:19.853Z,22.70
2019-05-20T16:43:57.361Z,22.70
2019-05-20T16:46:34.959Z,22.70
2019-05-20T16:49:12.574Z,22.60
2019-05-20T16:51:50.145Z,22.50
2019-05-20T16:54:27.712Z,22.40
2019-05-20T16:57:05.253Z,22.30
2019-05-20T16:59:42.782Z,22.20
2019-05-20T17:02:20.335Z,22.20
2019-05-20T17:04:57.874Z,22.20
2019-05-20T17:07:35.427Z,22.30
2019-05-20T17:10:12.964Z,22.30
2019-05-20T17:12:50.486Z,22.30
2019-05-20T17:15:27.995Z,22.30
2019-05-20T17:18:05.662Z,22.40
2019-05-20T17:20:45.990Z,22.40
2019-05-20T17:23:20.734Z,22.40
2019-05-20T17:25:58.242Z,22.50
2019-05-20T17:28:35.768Z,22.50
2019-05-20T17:31:18.239Z,22.40
2019-05-20T17:33:56.089Z,22.30
2019-05-20T17:36:36.602Z,22.20
2019-05-20T17:39:14.122Z,22.00
2019-05-20T17:41:51.757Z,21.90
2019-05-20T17:44:29.355Z,21.70
2019-05-20T17:47:06.934Z,21.60
2019-05-20T17:49:44.457Z,21.50
2019-05-20T17:52:22.077Z,21.40
2019-05-20T17:54:59.606Z,21.30
2019-05-20T17:57:37.190Z,21.20
2019-05-20T18:00:18.005Z,21.10
2019-05-20T18:02:55.589Z,21.00
2019-05-20T18:05:33.194Z,20.90
2019-05-20T18:08:10.760Z,20.70
2019-05-20T18:10:48.338Z,20.40
2019-05-20T18:13:25.954Z,20.10
2019-05-20T18:16:03.537Z,19.90
2019-05-20T18:18:41.214Z,19.70
2019-05-20T18:21:18.930Z,19.60
2019-05-20T18:23:56.657Z,19.60
2019-05-20T18:26:34.305Z,19.50
2019-05-20T18:29:11.913Z,19.50
2019-05-20T18:31:49.648Z,19.50
2019-05-20T18:34:27.175Z,19.40
2019-05-20T18:37:04.697Z,19.40
2019-05-20T18:39:42.267Z,19.30
2019-05-20T18:42:19.800Z,19.30
2019-05-20T18:44:57.378Z,19.20
2019-05-20T18:47:34.899Z,19.20
2019-05-20T18:50:13.409Z,19.10
2019-05-20T18:52:51.112Z,19.00
2019-05-20T18:55:28.730Z,18.80
2019-05-20T18:58:06.571Z,18.70
2019-05-20T19:00:44.141Z,18.50
2019-05-20T19:03:21.934Z,18.40
2019-05-20T19:05:59.294Z,18.30
2019-05-20T19:08:36.805Z,18.10
2019-05-20T19:11:14.375Z,18.00
2019-05-20T19:13:51.914Z,18.00
2019-05-20T19:16:29.530Z,17.90
2019-05-20T19:19:07.088Z,17.90
2019-05-20T19:21:44.747Z,18.00
2019-05-20T19:24:22.365Z,18.00
2019-05-20T19:27:00.191Z,18.00
2019-05-20T19:29:37.782Z,18.10
2019-05-20T19:32:15.490Z,18.00
2019-05-20T19:34:53.109Z,18.00
2019-05-20T19:37:30.836Z,17.90
2019-05-20T19:40:09.018Z,17.80
2019-05-20T19:42:46.036Z,17.80
2019-05-20T19:45:23.612Z,17.80
2019-05-20T19:48:01.130Z,17.70
2019-05-20T19:50:38.653Z,17.70
2019-05-20T19:53:16.222Z,17.70
2019-05-20T19:55:53.729Z,17.70
2019-05-20T19:58:31.259Z,17.70
2019-05-20T20:01:08.808Z,17.60
2019-05-20T20:03:46.429Z,17.50
2019-05-20T20:06:23.921Z,17.50
2019-05-20T20:09:01.429Z,17.40
2019-05-20T20:11:39.397Z,17.40
2019-05-20T20:14:16.945Z,17.30
2019-05-20T20:16:54.507Z,17.30
2019-05-20T20:19:32.073Z,17.30
2019-05-20T20:22:09.623Z,17.30
2019-05-20T20:24:47.129Z,17.30
2019-05-20T20:27:24.677Z,17.30
2019-05-20T20:30:02.181Z,17.30
2019-05-20T20:32:39.738Z,17.30
2019-05-20T20:35:17.296Z,17.40
2019-05-20T20:37:54.836Z,17.40
2019-05-20T20:40:32.361Z,17.40
2019-05-20T20:43:09.857Z,17.30
2019-05-20T20:45:47.399Z,17.40
2019-05-20T20:48:24.931Z,17.30
2019-05-20T20:51:02.588Z,17.30
2019-05-20T20:53:40.034Z,17.30
2019-05-20T20:56:25.295Z,17.20
2019-05-20T20:58:56.602Z,17.20
2019-05-20T21:01:34.171Z,17.30
2019-05-20T21:04:11.680Z,17.30
2019-05-20T21:06:49.228Z,17.40
2019-05-20T21:09:26.802Z,17.40
2019-05-20T21:12:04.284Z,17.40
2019-05-20T21:14:41.840Z,17.30
2019-05-20T21:17:19.493Z,17.30
2019-05-20T21:19:57.014Z,17.30
2019-05-20T21:22:34.719Z,17.30
2019-05-20T21:25:12.145Z,17.40
2019-05-20T21:27:49.673Z,17.40
2019-05-20T21:30:27.190Z,17.50
2019-05-20T21:33:09.277Z,17.60
2019-05-20T21:35:45.184Z,17.60
2019-05-20T21:38:19.764Z,17.60
2019-05-20T21:40:57.272Z,17.70
2019-05-20T21:43:34.805Z,17.70
2019-05-20T21:46:12.394Z,17.70
2019-05-20T21:48:49.921Z,17.70
2019-05-20T21:51:27.512Z,17.80
2019-05-20T21:54:05.050Z,17.80
2019-05-20T21:56:42.603Z,17.80
2019-05-20T21:59:20.101Z,17.80
2019-05-20T22:01:57.676Z,17.80
2019-05-20T22:04:35.285Z,17.80
2019-05-20T22:07:12.880Z,17.80
2019-05-20T22:09:50.424Z,17.80
2019-05-20T22:12:27.950Z,17.80
2019-05-20T22:15:05.558Z,17.80
2019-05-20T22:17:43.093Z,17.90
2019-05-20T22:20:20.583Z,17.90
2019-05-20T22:23:16.696Z,17.80
2019-05-20T22:25:54.183Z,17.70
2019-05-20T22:28:31.732Z,17.50
2019-05-20T22:31:09.274Z,17.40
2019-05-20T22:33:46.793Z,17.40
2019-05-20T22:36:24.402Z,17.40
2019-05-20T22:39:01.965Z,17.40
2019-05-20T22:41:39.437Z,17.50
2019-05-20T22:44:16.975Z,17.50
2019-05-20T22:46:54.483Z,17.60
2019-05-20T22:49:32.074Z,17.70
2019-05-20T22:52:09.568Z,17.70
2019-05-20T22:54:47.078Z,17.70
2019-05-20T22:57:24.659Z,17.70
2019-05-20T23:00:02.177Z,17.70
2019-05-20T23:02:39.727Z,17.70
2019-05-20T23:05:17.235Z,17.70
2019-05-20T23:07:54.841Z,17.80
2019-05-20T23:10:32.338Z,17.80
2019-05-20T23:13:09.869Z,17.80
2019-05-20T23:15:47.372Z,17.80
2019-05-20T23:18:24.997Z,17.80
2019-05-20T23:21:02.510Z,17.80
2019-05-20T23:23:40.037Z,17.70
2019-05-20T23:26:17.542Z,17.70
2019-05-20T23:28:55.079Z,17.80
2019-05-20T23:31:32.598Z,17.70
2019-05-20T23:34:13.197Z,17.70
2019-05-20T23:36:47.639Z,17.80
2019-05-20T23:39:25.182Z,17.80
2019-05-20T23:42:02.755Z,17.80
2019-05-20T23:44:40.284Z,17.80
2019-05-20T23:47:17.863Z,17.80
2019-05-20T23:49:55.342Z,17.70
2019-05-20T23:52:32.871Z,17.70
2019-05-20T23:55:10.615Z,17.60
2019-05-20T23:57:48.153Z,17.60
